sensor_id;sensor_type;location;lat;lon;timestamp;P1;durP1;ratioP1;P2;durP2;ratioP2
4597;SDS011;62772;48.646;8.906;2022-12-29T00:00:22;7.70;;;3.50;;
4597;SDS011;62772;48.646;8.906;2022-12-29T00:05:23;4.73;;;3.10;;
4597;SDS011;62772;48.646;8.906;2022-12-29T00:10:23;4.40;;;2.90;;
4597;SDS011;62772;48.646;8.906;2022-12-29T00:15:24;5.40;;;2.73;;
4597;SDS011;62772;48.646;8.906;2022-12-29T00:20:39;4.53;;;2.83;;
4597;SDS011;62772;48.646;8.906;2022-12-29T00:26:02;4.00;;;2.80;;
4597;SDS011;62772;48.646;8.906;2022-12-29T00:31:22;8.43;;;3.43;;
4597;SDS011;62772;48.646;8.906;2022-12-29T00:36:40;4.53;;;2.73;;
4597;SDS011;62772;48.646;8.906;2022-12-29T00:41:44;3.93;;;2.47;;
4597;SDS011;62772;48.646;8.906;2022-12-29T00:47:04;4.60;;;2.50;;
4597;SDS011;62772;48.646;8.906;2022-12-29T00:52:10;4.27;;;2.67;;
4597;SDS011;62772;48.646;8.906;2022-12-29T00:57:12;6.07;;;2.87;;
4597;SDS011;62772;48.646;8.906;2022-12-29T01:02:13;8.13;;;2.70;;
4597;SDS011;62772;48.646;8.906;2022-12-29T01:07:13;4.37;;;2.77;;
4597;SDS011;62772;48.646;8.906;2022-12-29T01:12:14;6.40;;;2.50;;
4597;SDS011;62772;48.646;8.906;2022-12-29T01:17:14;4.20;;;2.40;;
4597;SDS011;62772;48.646;8.906;2022-12-29T01:22:15;4.27;;;2.40;;
4597;SDS011;62772;48.646;8.906;2022-12-29T01:27:15;5.10;;;2.97;;
4597;SDS011;62772;48.646;8.906;2022-12-29T01:32:16;7.20;;;2.77;;
4597;SDS011;62772;48.646;8.906;2022-12-29T01:37:16;4.17;;;2.40;;
4597;SDS011;62772;48.646;8.906;2022-12-29T01:42:18;4.53;;;2.00;;
4597;SDS011;62772;48.646;8.906;2022-12-29T01:52:29;6.70;;;2.50;;
4597;SDS011;62772;48.646;8.906;2022-12-29T01:57:36;3.83;;;2.07;;
4597;SDS011;62772;48.646;8.906;2022-12-29T02:02:40;4.87;;;2.43;;
4597;SDS011;62772;48.646;8.906;2022-12-29T02:07:44;3.53;;;2.20;;
4597;SDS011;62772;48.646;8.906;2022-12-29T02:12:45;3.07;;;1.87;;
4597;SDS011;62772;48.646;8.906;2022-12-29T02:17:52;4.33;;;2.30;;
4597;SDS011;62772;48.646;8.906;2022-12-29T02:23:12;3.40;;;2.13;;
4597;SDS011;62772;48.646;8.906;2022-12-29T02:33:58;4.40;;;2.37;;
4597;SDS011;62772;48.646;8.906;2022-12-29T02:39:34;4.40;;;2.50;;
4597;SDS011;62772;48.646;8.906;2022-12-29T02:50:07;3.50;;;2.40;;
4597;SDS011;62772;48.646;8.906;2022-12-29T02:55:15;3.27;;;2.23;;
4597;SDS011;62772;48.646;8.906;2022-12-29T03:00:16;3.87;;;2.50;;
4597;SDS011;62772;48.646;8.906;2022-12-29T03:05:21;10.07;;;2.33;;
4597;SDS011;62772;48.646;8.906;2022-12-29T03:21:54;3.50;;;2.37;;
4597;SDS011;62772;48.646;8.906;2022-12-29T03:27:21;3.47;;;2.10;;
4597;SDS011;62772;48.646;8.906;2022-12-29T03:32:32;6.10;;;2.50;;
4597;SDS011;62772;48.646;8.906;2022-12-29T03:37:36;4.87;;;2.43;;
4597;SDS011;62772;48.646;8.906;2022-12-29T03:42:42;4.57;;;2.40;;
4597;SDS011;62772;48.646;8.906;2022-12-29T03:47:43;4.37;;;2.40;;
4597;SDS011;62772;48.646;8.906;2022-12-29T03:52:45;4.63;;;2.70;;
4597;SDS011;62772;48.646;8.906;2022-12-29T03:57:46;3.00;;;2.23;;
4597;SDS011;62772;48.646;8.906;2022-12-29T04:02:51;5.53;;;2.50;;
4597;SDS011;62772;48.646;8.906;2022-12-29T04:07:54;10.90;;;2.80;;
4597;SDS011;62772;48.646;8.906;2022-12-29T04:12:55;7.90;;;2.70;;
4597;SDS011;62772;48.646;8.906;2022-12-29T04:17:57;3.77;;;2.50;;
4597;SDS011;62772;48.646;8.906;2022-12-29T04:23:01;4.40;;;2.60;;
4597;SDS011;62772;48.646;8.906;2022-12-29T04:28:06;4.73;;;3.00;;
4597;SDS011;62772;48.646;8.906;2022-12-29T04:33:28;5.20;;;2.20;;
4597;SDS011;62772;48.646;8.906;2022-12-29T04:38:29;5.20;;;2.43;;
4597;SDS011;62772;48.646;8.906;2022-12-29T04:43:29;4.63;;;2.60;;
4597;SDS011;62772;48.646;8.906;2022-12-29T04:48:43;5.20;;;2.53;;
4597;SDS011;62772;48.646;8.906;2022-12-29T04:54:04;4.70;;;2.93;;
4597;SDS011;62772;48.646;8.906;2022-12-29T04:59:05;3.90;;;2.30;;
4597;SDS011;62772;48.646;8.906;2022-12-29T05:04:06;5.03;;;2.90;;
4597;SDS011;62772;48.646;8.906;2022-12-29T05:09:06;6.37;;;3.30;;
4597;SDS011;62772;48.646;8.906;2022-12-29T05:14:08;5.87;;;3.10;;
4597;SDS011;62772;48.646;8.906;2022-12-29T05:19:09;5.30;;;2.90;;
4597;SDS011;62772;48.646;8.906;2022-12-29T05:24:10;6.03;;;2.93;;
4597;SDS011;62772;48.646;8.906;2022-12-29T05:29:10;5.33;;;2.50;;
4597;SDS011;62772;48.646;8.906;2022-12-29T05:34:11;4.33;;;2.40;;
4597;SDS011;62772;48.646;8.906;2022-12-29T05:39:13;5.90;;;2.53;;
4597;SDS011;62772;48.646;8.906;2022-12-29T05:44:16;6.37;;;2.70;;
4597;SDS011;62772;48.646;8.906;2022-12-29T05:49:28;5.47;;;2.73;;
4597;SDS011;62772;48.646;8.906;2022-12-29T05:54:32;4.50;;;2.53;;
4597;SDS011;62772;48.646;8.906;2022-12-29T05:59:33;4.03;;;2.50;;
4597;SDS011;62772;48.646;8.906;2022-12-29T06:04:34;6.03;;;2.80;;
4597;SDS011;62772;48.646;8.906;2022-12-29T06:09:34;5.17;;;2.70;;
4597;SDS011;62772;48.646;8.906;2022-12-29T06:14:36;5.60;;;2.97;;
4597;SDS011;62772;48.646;8.906;2022-12-29T06:19:37;5.90;;;2.87;;
4597;SDS011;62772;48.646;8.906;2022-12-29T06:24:38;6.53;;;2.97;;
4597;SDS011;62772;48.646;8.906;2022-12-29T06:29:39;4.03;;;2.40;;
4597;SDS011;62772;48.646;8.906;2022-12-29T06:34:42;4.40;;;2.40;;
4597;SDS011;62772;48.646;8.906;2022-12-29T06:39:42;4.67;;;2.63;;
4597;SDS011;62772;48.646;8.906;2022-12-29T06:44:46;4.43;;;3.03;;
4597;SDS011;62772;48.646;8.906;2022-12-29T06:49:46;5.63;;;2.50;;
4597;SDS011;62772;48.646;8.906;2022-12-29T06:54:47;5.50;;;2.83;;
4597;SDS011;62772;48.646;8.906;2022-12-29T06:59:47;9.53;;;2.90;;
4597;SDS011;62772;48.646;8.906;2022-12-29T07:04:48;4.57;;;2.43;;
4597;SDS011;62772;48.646;8.906;2022-12-29T07:09:48;3.40;;;2.33;;
4597;SDS011;62772;48.646;8.906;2022-12-29T07:14:48;4.80;;;2.50;;
4597;SDS011;62772;48.646;8.906;2022-12-29T07:19:49;7.60;;;3.40;;
4597;SDS011;62772;48.646;8.906;2022-12-29T07:24:49;5.63;;;3.07;;
4597;SDS011;62772;48.646;8.906;2022-12-29T07:29:50;5.00;;;2.70;;
4597;SDS011;62772;48.646;8.906;2022-12-29T07:34:50;3.90;;;2.40;;
4597;SDS011;62772;48.646;8.906;2022-12-29T07:39:51;5.13;;;3.00;;
4597;SDS011;62772;48.646;8.906;2022-12-29T07:44:51;5.43;;;3.00;;
4597;SDS011;62772;48.646;8.906;2022-12-29T07:49:58;4.57;;;3.07;;
4597;SDS011;62772;48.646;8.906;2022-12-29T07:54:59;5.97;;;3.40;;
4597;SDS011;62772;48.646;8.906;2022-12-29T07:59:59;5.23;;;3.10;;
4597;SDS011;62772;48.646;8.906;2022-12-29T08:05:00;5.03;;;3.00;;
4597;SDS011;62772;48.646;8.906;2022-12-29T08:10:00;6.60;;;3.57;;
4597;SDS011;62772;48.646;8.906;2022-12-29T08:15:01;7.33;;;3.53;;
4597;SDS011;62772;48.646;8.906;2022-12-29T08:20:02;4.30;;;3.00;;
4597;SDS011;62772;48.646;8.906;2022-12-29T08:25:03;5.53;;;3.17;;
4597;SDS011;62772;48.646;8.906;2022-12-29T08:30:04;6.20;;;4.03;;
4597;SDS011;62772;48.646;8.906;2022-12-29T08:35:05;7.03;;;3.83;;
4597;SDS011;62772;48.646;8.906;2022-12-29T08:40:06;4.27;;;2.53;;
4597;SDS011;62772;48.646;8.906;2022-12-29T08:45:07;3.83;;;2.67;;
4597;SDS011;62772;48.646;8.906;2022-12-29T08:50:08;4.37;;;2.63;;
4597;SDS011;62772;48.646;8.906;2022-12-29T08:55:09;4.07;;;2.17;;
4597;SDS011;62772;48.646;8.906;2022-12-29T09:00:10;5.40;;;2.40;;
4597;SDS011;62772;48.646;8.906;2022-12-29T09:05:11;6.80;;;2.80;;
4597;SDS011;62772;48.646;8.906;2022-12-29T09:10:12;5.43;;;2.40;;
4597;SDS011;62772;48.646;8.906;2022-12-29T09:15:13;5.10;;;2.40;;
4597;SDS011;62772;48.646;8.906;2022-12-29T09:20:18;5.10;;;2.43;;
4597;SDS011;62772;48.646;8.906;2022-12-29T09:25:19;4.97;;;2.13;;
4597;SDS011;62772;48.646;8.906;2022-12-29T09:30:20;4.97;;;2.20;;
4597;SDS011;62772;48.646;8.906;2022-12-29T09:35:22;3.67;;;2.23;;
4597;SDS011;62772;48.646;8.906;2022-12-29T09:40:24;7.77;;;2.33;;
4597;SDS011;62772;48.646;8.906;2022-12-29T09:50:44;4.90;;;2.27;;
4597;SDS011;62772;48.646;8.906;2022-12-29T09:55:51;5.33;;;2.60;;
4597;SDS011;62772;48.646;8.906;2022-12-29T10:01:05;3.70;;;2.57;;
4597;SDS011;62772;48.646;8.906;2022-12-29T10:22:50;5.47;;;2.70;;
4597;SDS011;62772;48.646;8.906;2022-12-29T10:28:15;4.90;;;2.80;;
4597;SDS011;62772;48.646;8.906;2022-12-29T10:33:24;4.47;;;2.60;;
4597;SDS011;62772;48.646;8.906;2022-12-29T10:39:03;8.43;;;3.07;;
4597;SDS011;62772;48.646;8.906;2022-12-29T10:44:03;5.20;;;2.70;;
4597;SDS011;62772;48.646;8.906;2022-12-29T10:49:05;6.20;;;2.63;;
4597;SDS011;62772;48.646;8.906;2022-12-29T10:54:13;3.87;;;2.63;;
4597;SDS011;62772;48.646;8.906;2022-12-29T11:05:05;6.30;;;3.03;;
4597;SDS011;62772;48.646;8.906;2022-12-29T11:09:54;6.47;;;3.03;;
4597;SDS011;62772;48.646;8.906;2022-12-29T11:20:19;11.00;;;2.80;;
4597;SDS011;62772;48.646;8.906;2022-12-29T11:25:31;6.13;;;2.90;;
4597;SDS011;62772;48.646;8.906;2022-12-29T11:30:32;6.00;;;2.60;;
4597;SDS011;62772;48.646;8.906;2022-12-29T11:40:43;5.20;;;2.90;;
4597;SDS011;62772;48.646;8.906;2022-12-29T11:45:44;5.03;;;2.20;;
4597;SDS011;62772;48.646;8.906;2022-12-29T11:50:50;5.07;;;3.33;;
4597;SDS011;62772;48.646;8.906;2022-12-29T11:55:57;4.63;;;2.57;;
4597;SDS011;62772;48.646;8.906;2022-12-29T12:01:02;5.23;;;2.43;;
4597;SDS011;62772;48.646;8.906;2022-12-29T12:06:07;8.97;;;3.17;;
4597;SDS011;62772;48.646;8.906;2022-12-29T12:11:18;4.47;;;2.80;;
4597;SDS011;62772;48.646;8.906;2022-12-29T12:21:47;7.47;;;3.90;;
4597;SDS011;62772;48.646;8.906;2022-12-29T12:48:25;7.50;;;3.20;;
4597;SDS011;62772;48.646;8.906;2022-12-29T13:04:30;6.70;;;3.43;;
4597;SDS011;62772;48.646;8.906;2022-12-29T13:09:57;6.00;;;3.20;;
4597;SDS011;62772;48.646;8.906;2022-12-29T13:20:39;5.47;;;3.10;;
4597;SDS011;62772;48.646;8.906;2022-12-29T13:31:43;8.40;;;4.17;;
4597;SDS011;62772;48.646;8.906;2022-12-29T13:37:11;7.60;;;3.60;;
4597;SDS011;62772;48.646;8.906;2022-12-29T13:42:16;5.43;;;3.47;;
4597;SDS011;62772;48.646;8.906;2022-12-29T14:08:44;8.70;;;3.37;;
4597;SDS011;62772;48.646;8.906;2022-12-29T14:13:46;6.77;;;3.07;;
4597;SDS011;62772;48.646;8.906;2022-12-29T14:18:48;7.27;;;3.00;;
4597;SDS011;62772;48.646;8.906;2022-12-29T14:23:50;5.43;;;3.20;;
4597;SDS011;62772;48.646;8.906;2022-12-29T14:28:51;8.47;;;3.30;;
4597;SDS011;62772;48.646;8.906;2022-12-29T14:44:32;3.37;;;2.50;;
4597;SDS011;62772;48.646;8.906;2022-12-29T14:49:39;7.90;;;3.00;;
4597;SDS011;62772;48.646;8.906;2022-12-29T14:54:44;7.40;;;3.50;;
4597;SDS011;62772;48.646;8.906;2022-12-29T14:59:52;5.70;;;2.90;;
4597;SDS011;62772;48.646;8.906;2022-12-29T15:04:58;6.53;;;3.27;;
4597;SDS011;62772;48.646;8.906;2022-12-29T15:10:05;5.17;;;3.50;;
4597;SDS011;62772;48.646;8.906;2022-12-29T15:15:25;7.60;;;4.10;;
4597;SDS011;62772;48.646;8.906;2022-12-29T15:20:29;7.30;;;3.80;;
4597;SDS011;62772;48.646;8.906;2022-12-29T15:25:31;6.93;;;3.40;;
4597;SDS011;62772;48.646;8.906;2022-12-29T15:30:32;8.07;;;4.03;;
4597;SDS011;62772;48.646;8.906;2022-12-29T15:35:36;8.43;;;3.57;;
4597;SDS011;62772;48.646;8.906;2022-12-29T15:40:37;7.20;;;3.90;;
4597;SDS011;62772;48.646;8.906;2022-12-29T15:45:39;6.60;;;4.13;;
4597;SDS011;62772;48.646;8.906;2022-12-29T15:50:39;9.00;;;4.67;;
4597;SDS011;62772;48.646;8.906;2022-12-29T15:55:43;6.63;;;3.90;;
4597;SDS011;62772;48.646;8.906;2022-12-29T16:00:48;7.97;;;4.47;;
4597;SDS011;62772;48.646;8.906;2022-12-29T16:05:54;11.77;;;6.53;;
4597;SDS011;62772;48.646;8.906;2022-12-29T16:11:30;10.03;;;6.33;;
4597;SDS011;62772;48.646;8.906;2022-12-29T16:16:39;7.90;;;4.87;;
4597;SDS011;62772;48.646;8.906;2022-12-29T16:21:41;11.23;;;3.63;;
4597;SDS011;62772;48.646;8.906;2022-12-29T16:26:59;7.50;;;4.10;;
4597;SDS011;62772;48.646;8.906;2022-12-29T16:37:31;5.53;;;3.47;;
4597;SDS011;62772;48.646;8.906;2022-12-29T16:42:33;8.67;;;4.60;;
4597;SDS011;62772;48.646;8.906;2022-12-29T16:47:35;6.33;;;3.73;;
4597;SDS011;62772;48.646;8.906;2022-12-29T16:52:36;9.57;;;4.80;;
4597;SDS011;62772;48.646;8.906;2022-12-29T16:57:36;9.57;;;7.00;;
4597;SDS011;62772;48.646;8.906;2022-12-29T17:02:37;13.37;;;7.93;;
4597;SDS011;62772;48.646;8.906;2022-12-29T17:07:45;12.80;;;6.60;;
4597;SDS011;62772;48.646;8.906;2022-12-29T17:12:46;14.70;;;7.90;;
4597;SDS011;62772;48.646;8.906;2022-12-29T17:17:49;15.40;;;9.30;;
4597;SDS011;62772;48.646;8.906;2022-12-29T17:22:51;8.20;;;5.13;;
4597;SDS011;62772;48.646;8.906;2022-12-29T17:27:57;9.47;;;5.00;;
4597;SDS011;62772;48.646;8.906;2022-12-29T17:33:04;21.40;;;10.63;;
4597;SDS011;62772;48.646;8.906;2022-12-29T17:38:18;22.07;;;11.43;;
4597;SDS011;62772;48.646;8.906;2022-12-29T17:43:26;14.63;;;9.40;;
4597;SDS011;62772;48.646;8.906;2022-12-29T17:48:27;10.60;;;6.60;;
4597;SDS011;62772;48.646;8.906;2022-12-29T17:53:28;7.90;;;4.77;;
4597;SDS011;62772;48.646;8.906;2022-12-29T17:58:29;12.90;;;8.17;;
4597;SDS011;62772;48.646;8.906;2022-12-29T18:03:33;21.73;;;13.00;;
4597;SDS011;62772;48.646;8.906;2022-12-29T18:08:39;26.93;;;13.43;;
4597;SDS011;62772;48.646;8.906;2022-12-29T18:13:40;8.17;;;5.60;;
4597;SDS011;62772;48.646;8.906;2022-12-29T18:18:40;8.47;;;4.63;;
4597;SDS011;62772;48.646;8.906;2022-12-29T18:23:41;7.53;;;4.57;;
4597;SDS011;62772;48.646;8.906;2022-12-29T18:28:41;9.30;;;5.53;;
4597;SDS011;62772;48.646;8.906;2022-12-29T18:33:43;7.80;;;4.43;;
4597;SDS011;62772;48.646;8.906;2022-12-29T18:38:44;6.60;;;4.70;;
4597;SDS011;62772;48.646;8.906;2022-12-29T18:43:46;6.27;;;3.17;;
4597;SDS011;62772;48.646;8.906;2022-12-29T18:48:46;4.40;;;2.53;;
4597;SDS011;62772;48.646;8.906;2022-12-29T18:53:47;5.20;;;2.83;;
4597;SDS011;62772;48.646;8.906;2022-12-29T18:58:48;6.00;;;3.50;;
4597;SDS011;62772;48.646;8.906;2022-12-29T19:03:49;4.23;;;2.90;;
4597;SDS011;62772;48.646;8.906;2022-12-29T19:08:49;5.00;;;2.60;;
4597;SDS011;62772;48.646;8.906;2022-12-29T19:13:50;9.13;;;5.57;;
4597;SDS011;62772;48.646;8.906;2022-12-29T19:18:50;5.23;;;3.30;;
4597;SDS011;62772;48.646;8.906;2022-12-29T19:23:55;4.50;;;2.77;;
4597;SDS011;62772;48.646;8.906;2022-12-29T19:28:55;9.70;;;3.80;;
4597;SDS011;62772;48.646;8.906;2022-12-29T19:33:57;7.70;;;3.17;;
4597;SDS011;62772;48.646;8.906;2022-12-29T19:38:57;4.20;;;2.63;;
4597;SDS011;62772;48.646;8.906;2022-12-29T19:43:58;3.07;;;1.90;;
4597;SDS011;62772;48.646;8.906;2022-12-29T19:48:59;3.33;;;2.50;;
4597;SDS011;62772;48.646;8.906;2022-12-29T19:53:59;3.40;;;1.77;;
4597;SDS011;62772;48.646;8.906;2022-12-29T19:59:00;4.00;;;2.90;;
4597;SDS011;62772;48.646;8.906;2022-12-29T20:04:00;5.57;;;3.60;;
4597;SDS011;62772;48.646;8.906;2022-12-29T20:09:02;5.40;;;3.40;;
4597;SDS011;62772;48.646;8.906;2022-12-29T20:14:03;5.83;;;3.57;;
4597;SDS011;62772;48.646;8.906;2022-12-29T20:19:03;10.10;;;6.03;;
4597;SDS011;62772;48.646;8.906;2022-12-29T20:24:05;14.83;;;7.07;;
4597;SDS011;62772;48.646;8.906;2022-12-29T20:29:05;7.30;;;4.73;;
4597;SDS011;62772;48.646;8.906;2022-12-29T20:34:07;6.90;;;3.53;;
4597;SDS011;62772;48.646;8.906;2022-12-29T20:39:11;5.80;;;3.43;;
4597;SDS011;62772;48.646;8.906;2022-12-29T20:44:16;3.90;;;2.57;;
4597;SDS011;62772;48.646;8.906;2022-12-29T20:49:16;3.20;;;2.23;;
4597;SDS011;62772;48.646;8.906;2022-12-29T20:54:17;5.07;;;2.70;;
4597;SDS011;62772;48.646;8.906;2022-12-29T20:59:18;2.90;;;2.07;;
4597;SDS011;62772;48.646;8.906;2022-12-29T21:04:19;7.00;;;2.00;;
4597;SDS011;62772;48.646;8.906;2022-12-29T21:09:19;6.37;;;2.23;;
4597;SDS011;62772;48.646;8.906;2022-12-29T21:14:20;6.07;;;2.23;;
4597;SDS011;62772;48.646;8.906;2022-12-29T21:19:21;3.60;;;2.20;;
4597;SDS011;62772;48.646;8.906;2022-12-29T21:24:22;2.93;;;1.50;;
4597;SDS011;62772;48.646;8.906;2022-12-29T21:29:22;2.43;;;1.20;;
4597;SDS011;62772;48.646;8.906;2022-12-29T21:34:23;2.33;;;1.40;;
4597;SDS011;62772;48.646;8.906;2022-12-29T21:39:23;2.30;;;1.50;;
4597;SDS011;62772;48.646;8.906;2022-12-29T21:44:25;1.93;;;1.10;;
4597;SDS011;62772;48.646;8.906;2022-12-29T21:49:45;4.93;;;2.37;;
4597;SDS011;62772;48.646;8.906;2022-12-29T21:54:45;3.00;;;2.10;;
4597;SDS011;62772;48.646;8.906;2022-12-29T22:00:01;3.63;;;1.80;;
4597;SDS011;62772;48.646;8.906;2022-12-29T22:05:24;4.30;;;2.40;;
4597;SDS011;62772;48.646;8.906;2022-12-29T22:10:44;2.87;;;1.70;;
4597;SDS011;62772;48.646;8.906;2022-12-29T22:16:06;2.40;;;1.60;;
4597;SDS011;62772;48.646;8.906;2022-12-29T22:21:09;2.90;;;1.80;;
4597;SDS011;62772;48.646;8.906;2022-12-29T22:26:10;3.40;;;1.93;;
4597;SDS011;62772;48.646;8.906;2022-12-29T22:31:45;4.03;;;2.47;;
4597;SDS011;62772;48.646;8.906;2022-12-29T22:36:38;2.23;;;1.60;;
4597;SDS011;62772;48.646;8.906;2022-12-29T22:41:39;2.10;;;1.60;;
4597;SDS011;62772;48.646;8.906;2022-12-29T22:46:40;2.43;;;1.37;;
4597;SDS011;62772;48.646;8.906;2022-12-29T22:51:40;2.33;;;1.40;;
4597;SDS011;62772;48.646;8.906;2022-12-29T22:56:41;2.13;;;1.60;;
4597;SDS011;62772;48.646;8.906;2022-12-29T23:01:41;2.17;;;1.53;;
4597;SDS011;62772;48.646;8.906;2022-12-29T23:06:43;2.40;;;1.57;;
4597;SDS011;62772;48.646;8.906;2022-12-29T23:11:43;2.90;;;1.70;;
4597;SDS011;62772;48.646;8.906;2022-12-29T23:16:44;3.70;;;2.17;;
4597;SDS011;62772;48.646;8.906;2022-12-29T23:21:45;5.40;;;2.30;;
4597;SDS011;62772;48.646;8.906;2022-12-29T23:26:46;5.23;;;2.77;;
4597;SDS011;62772;48.646;8.906;2022-12-29T23:31:47;7.53;;;4.10;;
4597;SDS011;62772;48.646;8.906;2022-12-29T23:36:48;4.60;;;3.17;;
4597;SDS011;62772;48.646;8.906;2022-12-29T23:41:50;7.50;;;3.30;;
4597;SDS011;62772;48.646;8.906;2022-12-29T23:46:51;4.10;;;3.00;;
4597;SDS011;62772;48.646;8.906;2022-12-29T23:51:51;4.57;;;3.10;;
4597;SDS011;62772;48.646;8.906;2022-12-29T23:56:52;6.00;;;3.73;;
